METAR / TAF

METAR / TAF
Aktuelle Wetterdaten für Piloten (ohne Gewähr!)


Available data for LSZB from the past 2 hours
BERN/BELP
Metar
LSZB 161750Z 00000KT CAVOK 11/09 Q1019 NOSIG

17:50 UTC

Wind: 0° 0kt

Visibility:

Sky:

Temp: 11 deg C / 51.8 deg F

Dewpoint: 9 deg C / 48.2 deg F

Pressure: 1019 hPa

TAF
TAF LSZB 161425Z 1615/1624 29005KT CAVOK

Available data for LSGS from the past 2 hours
SION (MIL/CIV/AU
Metar
LSGS 161750Z AUTO 00000KT CAVOK 16/06 Q1019

17:50 UTC

Wind: 0° 0kt

Visibility:

Sky:

Temp: 16 deg C / 60.8 deg F

Dewpoint: 6 deg C / 42.8 deg F

Pressure: 1019 hPa

TAF
TAF LSGS 161425Z 1615/1624 25005KT CAVOK

Available data for LSZG from the past 2 hours
GRENCHEN
Metar
LSZG 161750Z AUTO VRB01KT 9999 NSC 13/07 Q1019

17:50 UTC

Wind: ° 1kt

Visibility: 9999 m

Sky:

Temp: 13 deg C / 55.4 deg F

Dewpoint: 7 deg C / 44.6 deg F

Pressure: 1019 hPa

TAF
TAF LSZG 161425Z 1615/1624 08004KT CAVOK BECMG 1621/1624 7000 NSC

Available data for LSMP from the past 2 hours
PAYERNE (MIL/AUT
Metar
LSMP 161750Z VRB01KT CAVOK 14/07 Q1019 RMK BLU

17:50 UTC

Wind: ° 1kt

Visibility:

Sky:

Temp: 14 deg C / 57.2 deg F

Dewpoint: 7 deg C / 44.6 deg F

Pressure: 1019 hPa


Available data for LSZA from the past 2 hours
LUGANO (PVT/AUT)
Metar
LSZA 161750Z VRB02KT CAVOK 15/13 Q1021 NOSIG

17:50 UTC

Wind: ° 2kt

Visibility:

Sky:

Temp: 15 deg C / 59 deg F

Dewpoint: 13 deg C / 55.4 deg F

Pressure: 1021 hPa

TAF
TAF LSZA 161425Z 1615/1624 20005KT CAVOK PROB40 TEMPO 1615/1621 9999 FEW040 BECMG 1620/1622 4000 BR FEW060

Available data for LSZS from the past 2 hours
SAMEDAN
Metar
LSZS 161750Z AUTO 17006KT 150V220 9000 NCD 06/04 Q1024

17:50 UTC

Wind: 170° 6kt

Visibility: 9000 m

Sky:

Temp: 6 deg C / 42.8 deg F

Dewpoint: 4 deg C / 39.2 deg F

Pressure: 1024 hPa

TAF
TAF LSZS 161425Z 1615/1624 23014KT 9999 FEW045 TX12/1615Z TEMPO 1616/1624 CAVOK BECMG 1618/1622 VRB03KT